Skip to main content

NOAA/GLERL Met Station at Muskegon, MI

Previous 5 days (top of hour only)
See also Previous 3 Hours (2 minute increments)
Jump down to Data
Switch to [English][Metric]
Zoom: Click and drag, Pan: shift-click and drag, Unzoom: double-click, Unzoom All






Note: Speed = mean wind during 2-minute period at top of hour,
Gust = max wind during 2-minute period at top of hour,
Peak = max wind during entire hour.
• See also 5-day windrose plot


NOAA/GLERL Met Station at Muskegon, MI

Previous 5 days (top of hour only)
See also Previous 3 Hours (2 minute increments)
Jump up to Graphs
Switch to [English][Metric]
                  Wind  Wind  Wind   Air   Dew   Rel     Sta   PAR
                   Spd   Gst   Dir  Temp    Pt   Hum    Pres uE/m2/
YYYY-MM-DD   EDT   kts   kts   deg     F     F     %   in Hg   sec
2020-07-13 00:00 -99.0 -99.0   -99   0.0   0.0   0.0    0.00     0
2020-07-12 11:00  10.3  13.8   349  70.2  60.8  71.9   29.23  1756
2020-07-12 10:00  11.9  13.2    19  72.0  57.3  59.4   29.24  1614
2020-07-12 08:00   5.1   8.7    48  67.1  58.2  72.8   29.23   388
2020-07-12 07:00  10.3  12.4    55  65.5  59.3  80.2   29.21   191
2020-07-12 06:00   7.4   9.9    66  66.4  60.4  80.9   29.20     3
2020-07-12 05:00   7.8  11.5    74  67.1  60.3  78.6   29.18     2
2020-07-12 04:00   8.7  11.5    74  67.6  61.6  80.7   29.18     2
2020-07-12 03:00   8.9  11.5    60  69.3  62.1  77.6   29.17     2
2020-07-12 02:00   3.7   4.3    68  71.6  63.8  76.1   29.16     2
2020-07-12 01:00   0.6   0.8    85  72.1  69.6  91.6   29.17     2
2020-07-12 00:00   1.7   2.3   120  72.7  68.6  86.7   29.17     2
2020-07-11 23:00   2.9   3.1   196  72.0  69.8  92.7   29.18     2
2020-07-11 22:00   1.7   2.1   230  72.1  69.5  91.3   29.18     2
2020-07-11 21:00   3.1   4.7   247  74.3  70.1  86.6   29.18   165
2020-07-11 20:00   4.7   5.6   262  74.5  69.9  85.5   29.18  1035
2020-07-11 19:00   3.5   4.5   254  74.5  70.3  86.7   29.18   968
2020-07-11 18:00   5.1   5.6   253  74.8  69.3  82.7   29.19  1720
2020-07-11 17:00   5.4   6.2   277  75.0  69.9  83.8   29.20  1830
2020-07-11 16:00   5.2   5.6   309  75.2  68.1  78.2   29.22  1655
2020-07-11 15:00   9.9  10.1   331  75.4  67.6  76.4   29.23  1874
2020-07-11 14:00  11.1  11.5   322  74.3  68.7  82.5   29.24  1868
2020-07-11 13:00  10.7  11.5   323  74.8  68.9  81.5   29.25  1836
2020-07-11 12:00  11.3  12.2   335  74.1  68.9  83.5   29.23  1795
2020-07-11 11:00  12.1  12.6   332  73.6  68.0  82.3   29.23  1735
2020-07-11 10:00   6.2   7.8   344  72.7  67.5  83.4   29.22  1658
2020-07-11 09:00   9.3   9.7   331  71.2  68.6  91.2   29.23  1449
2020-07-11 08:00   7.8   8.6   296  71.8  71.0  97.3   29.22  1099
2020-07-11 07:00   6.4   7.0   293  70.7  70.7  99.9   29.22   470
2020-07-11 06:00   2.5   3.3   309  69.8  69.8  99.9   29.21     4
2020-07-11 05:00   1.2   1.4   328  68.2  68.0  99.3   29.20     2
2020-07-11 04:00   4.3   4.7   355  69.8  69.3  98.4   29.20     2
2020-07-11 03:00   4.9   6.0   357  69.8  69.4  98.5   29.21     2
2020-07-11 02:00   5.1   6.6   358  70.9  69.7  96.0   29.21     2
2020-07-11 01:00   4.7   5.4   358  70.7  68.7  93.2   29.22     2
2020-07-11 00:00   4.5   5.8   333  71.6  67.5  86.8   29.22     2
2020-07-10 23:00   4.9   5.1     0  71.4  64.3  77.9   29.22     2
2020-07-10 22:00   5.2   6.2   351  73.2  64.5  73.7   29.20     2
2020-07-10 21:00  10.5  13.0    23  76.3  63.5  64.2   29.20   283
2020-07-10 20:00   8.9  11.5     2  75.4  68.1  77.7   29.20   509
2020-07-10 19:00  16.9  21.0   352  76.8  68.5  75.1   29.19  1450
2020-07-10 18:00  16.7  20.2   351  77.0  68.8  75.4   29.19  1693
2020-07-10 17:00  20.0  22.7   343  75.0  69.4  82.5   29.18  1769
2020-07-10 16:00  22.0  24.7   344  74.8  69.8  84.2   29.17  1665
2020-07-10 15:00  18.5  22.7   344  74.5  69.5  84.3   29.16  1643
2020-07-10 14:00  13.8  17.1    16  76.1  67.5  74.3   29.14  1419
2020-07-10 13:00  12.6  15.2   349  74.1  69.5  85.4   29.14  2115
2020-07-10 12:00  13.4  14.4   337  73.0  70.7  92.3   29.15   865
2020-07-10 11:00  11.3  12.2   296  73.8  71.0  90.9   29.14   339
2020-07-10 10:00   7.4   8.0   261  74.1  71.1  90.1   29.14   749
2020-07-10 09:00   9.7  12.2   188  73.6  70.5  89.9   29.15  1918
2020-07-10 08:00   6.8   9.1   193  71.6  70.1  94.9   29.14   147
2020-07-10 07:00   3.5   6.2   170  69.8  68.2  94.7   29.14    26
2020-07-10 06:00   9.5  12.2   124  69.8  68.0  93.9   29.13     2
2020-07-10 05:00   7.0   9.9   120  70.3  68.4  93.4   29.13     2
2020-07-10 04:00  10.3  13.2   103  70.0  70.0  99.9   29.13     2
2020-07-10 03:00  10.1  12.1    17  69.8  68.5  95.7   29.15     2
2020-07-10 02:00  15.4  16.7   318  71.4  71.4  99.9   29.19     2
2020-07-10 01:00   5.4   7.8    75  74.1  69.2  84.5   29.16     2
2020-07-10 00:00  17.7  20.2   338  74.7  70.2  85.7   29.19     2
2020-07-09 23:00  12.4  15.2   133  79.5  67.8  66.8   29.18     2
2020-07-09 22:00   7.0  10.5   122  80.6  69.5  68.4   29.18     2
2020-07-09 21:00   4.5   7.2   125  83.1  69.3  62.6   29.17    68
2020-07-09 20:00   7.2  10.7   139  83.8  70.3  63.2   29.18   439
2020-07-09 19:00   5.1   5.6   198  83.1  73.0  71.1   29.19   567
2020-07-09 18:00   1.2   1.6   305  82.6  71.5  68.8   29.20  1131
2020-07-09 17:00   2.3   2.9   309  81.3  74.8  80.3   29.22  2011
2020-07-09 16:00   4.7   5.2   256  80.1  74.9  84.1   29.22  1948
2020-07-09 15:00   6.4   6.8   265  80.8  76.0  85.0   29.25  1775
2020-07-09 14:00   4.9   5.4   237  78.8  76.1  91.2   29.26  1908
2020-07-09 13:00   6.4   7.2   235  78.8  76.2  91.6   29.27  1923
2020-07-09 12:00  10.5  12.2   189  80.1  75.4  85.4   29.25  1853
2020-07-09 11:00   8.4  10.5   192  79.5  74.6  84.8   29.27  1757
2020-07-09 10:00   3.1   3.9   312  78.6  71.9  79.4   29.30  1678
2020-07-09 09:00   6.8   8.0   180  79.9  70.3  72.2   29.28  1393
2020-07-09 08:00   2.9   4.7   169  77.4  67.3  70.8   29.29   388
2020-07-09 07:00   4.7   5.6   119  75.0  68.9  81.0   29.28   230
2020-07-09 06:00   4.9   6.6   169  74.3  70.5  87.6   29.27     5
2020-07-09 05:00   5.4   6.4   115  74.7  71.5  89.7   29.27     2
2020-07-09 04:00   2.7   3.1   140  75.0  69.9  83.9   29.25     2
2020-07-09 03:00   2.9   3.3   184  75.4  71.5  87.6   29.26     2
2020-07-09 02:00   4.5   4.9   132  75.9  72.3  88.3   29.25     2
2020-07-09 01:00   4.3   4.7   124  76.5  72.3  86.6   29.26     2
2020-07-09 00:00   3.9   4.3   128  76.6  73.3  89.3   29.27     2
2020-07-08 22:00   3.7   4.1   287  78.1  74.6  88.8   29.29     2
2020-07-08 21:00   2.9   3.1   229  78.4  74.0  86.1   29.27   232
2020-07-08 20:00   4.1   4.3   255  79.3  72.7  79.9   29.25  1071
2020-07-08 19:00   4.7   5.2   215  81.0  72.5  75.0   29.25  1222
2020-07-08 18:00   3.7   4.1   274  79.5  71.3  75.7   29.27  1827
2020-07-08 17:00   3.5   4.1   284  79.3  70.7  74.4   29.27  1814
2020-07-08 16:00   6.4   7.0   324  80.2  71.4  74.0   29.29  1844
2020-07-08 15:00   7.0   7.4   306  79.7  71.4  75.3   29.32  1404
2020-07-08 14:00   5.2   6.2   318  79.7  72.8  79.1   29.34  1875
2020-07-08 13:00   4.3   4.9   306  78.6  72.5  81.2   29.35  1865
2020-07-08 12:00   5.4   6.0   278  77.5  72.9  85.5   29.35  1826
2020-07-08 11:00   3.3   3.9   250  76.8  73.1  88.0   29.33  1776
2020-07-08 10:00   1.9   2.5   282  76.5  72.7  87.9   29.34  1812
2020-07-08 09:00   4.1   5.1   201  77.0  72.2  84.8   29.33  1462
2020-07-08 08:00   4.5   4.9   204  75.9  71.5  85.9   29.34   886
2020-07-08 07:00   3.5   3.7   166  74.1  69.9  86.5   29.31   167
2020-07-08 06:00   1.9   2.3   228  74.5  71.0  88.7   29.31     4
2020-07-08 05:00   5.6   6.8    90  73.9  69.9  87.0   29.30     2
2020-07-08 04:00   4.9   6.6    83  75.2  70.3  84.5   29.30     2
2020-07-08 03:00   5.6   8.2    85  75.0  70.3  85.1   29.31     2
2020-07-08 02:00   4.9   6.8    89  74.1  69.5  85.2   29.32     2
2020-07-08 01:00   5.1   5.6   338  74.8  69.6  83.5   29.32     2
2020-07-08 00:00   8.2   8.9   315  75.6  72.2  89.2   29.33     2
2020-07-07 23:00  11.1  12.8   347  75.0  70.9  86.8   29.32     2
2020-07-07 22:00  13.2  14.2   335  77.7  73.9  87.9   29.31     2
2020-07-07 21:00   2.3   3.1   273  78.6  75.0  88.6   29.30    29
2020-07-07 20:00   3.9   4.3   239  78.8  74.6  86.7   29.29   131